Time;durP1;ratioP1;P1;durP2;ratioP2;P2;SDS_P1;SDS_P2;PMS_P1;PMS_P2;Temp;Humidity;BMP_temperature;BMP_pressure;BME280_temperature;BME280_humidity;BME280_pressure;Samples;Min_cycle;Max_cycle;Signal;HPM_P1;HPM_P2
2022/05/24 00:02:05;;;;;;;27.55;13.15;;;14.10;99.90;;;;;;4940666;28;38226;-74
2022/05/24 00:04:31;;;;;;;21.73;12.77;;;14.10;99.90;;;;;;4938026;28;39746;-74
2022/05/24 00:06:58;;;;;;;25.17;12.07;;;14.10;99.90;;;;;;4940437;28;38982;-74
2022/05/24 00:09:25;;;;;;;21.85;11.50;;;14.00;99.90;;;;;;4944701;28;39285;-74
2022/05/24 00:11:52;;;;;;;23.25;9.93;;;14.00;99.90;;;;;;4941632;28;37426;-74
2022/05/24 00:15:19;;;;;;;23.25;10.73;;;13.90;99.90;;;;;;4940883;28;39169;-74
2022/05/24 00:17:05;;;;;;;20.33;9.25;;;13.90;99.90;;;;;;4943056;28;40766;-73
2022/05/24 00:19:32;;;;;;;20.77;8.23;;;13.90;99.90;;;;;;4943756;28;38989;-74
2022/05/24 00:21:58;;;;;;;19.15;7.80;;;13.80;99.90;;;;;;4937585;28;38234;-74
2022/05/24 00:24:24;;;;;;;20.00;6.43;;;13.80;99.90;;;;;;4942399;28;40428;-75
2022/05/24 00:26:50;;;;;;;18.70;6.00;;;13.80;99.90;;;;;;4944836;28;38922;-74
2022/05/24 00:29:17;;;;;;;12.73;5.53;;;13.70;99.90;;;;;;4938472;28;38778;-73
2022/05/24 00:31:43;;;;;;;16.67;5.50;;;13.70;99.90;;;;;;4948080;28;39147;-74
2022/05/24 00:34:09;;;;;;;15.18;6.50;;;13.70;99.90;;;;;;4955621;28;40382;-74
2022/05/24 00:36:35;;;;;;;14.57;5.45;;;13.70;99.90;;;;;;4943473;28;38969;-73
2022/05/24 00:39:01;;;;;;;13.30;6.10;;;13.60;99.90;;;;;;4952453;28;40474;-75
2022/05/24 00:41:38;;;;;;;14.90;5.47;;;13.60;99.90;;;;;;4955238;28;37667;-75
2022/05/24 00:44:19;;;;;;;10.93;5.00;;;13.60;99.90;;;;;;4943890;28;38662;-73
2022/05/24 00:46:55;;;;;;;13.52;5.43;;;13.60;99.90;;;;;;4939613;28;40001;-74
2022/05/24 00:49:37;;;;;;;16.25;5.13;;;13.60;99.90;;;;;;4927473;28;39009;-74
2022/05/24 00:52:10;;;;;;;17.67;4.60;;;13.60;99.90;;;;;;4931411;28;38265;-74
2022/05/24 00:54:37;;;;;;;22.50;5.20;;;13.60;99.90;;;;;;4945413;28;39555;-73
2022/05/24 00:57:27;;;;;;;14.93;4.78;;;13.60;99.90;;;;;;4959821;28;39769;-75
2022/05/24 01:00:01;;;;;;;13.68;4.50;;;13.60;99.90;;;;;;4943793;28;35906;-74
2022/05/24 01:02:27;;;;;;;17.95;6.22;;;13.60;99.90;;;;;;4946818;28;47004;-74
2022/05/24 01:04:53;;;;;;;11.88;5.28;;;13.60;99.90;;;;;;4958897;28;38765;-74
2022/05/24 01:07:19;;;;;;;14.70;5.43;;;13.60;99.90;;;;;;4951718;28;38813;-74
2022/05/24 01:09:48;;;;;;;15.52;7.43;;;13.60;99.90;;;;;;4958618;28;38907;-74
2022/05/24 01:12:23;;;;;;;17.83;7.93;;;13.50;99.90;;;;;;4949997;28;36353;-74
2022/05/24 01:14:51;;;;;;;18.98;9.15;;;13.50;99.90;;;;;;4947385;28;38469;-75
2022/05/24 01:17:17;;;;;;;16.88;8.35;;;13.60;99.90;;;;;;4945198;28;39547;-74
2022/05/24 01:19:49;;;;;;;16.65;8.50;;;13.60;99.90;;;;;;4962692;28;40410;-74
2022/05/24 01:22:33;;;;;;;16.45;8.48;;;13.60;99.90;;;;;;4964862;28;37918;-75
2022/05/24 01:25:26;;;;;;;15.63;7.35;;;13.60;99.90;;;;;;4946157;28;38868;-74
2022/05/24 01:27:52;;;;;;;17.45;7.65;;;13.60;99.90;;;;;;4957348;28;48418;-74
2022/05/24 01:30:18;;;;;;;24.45;9.55;;;13.60;99.90;;;;;;4956189;28;37684;-74
2022/05/24 01:38:18;;;;;;;22.77;9.23;;;13.50;99.90;;;;;;4956353;28;39790;-74
2022/05/24 01:40:47;;;;;;;18.17;8.57;;;13.50;99.90;;;;;;4958330;28;37472;-73
2022/05/24 01:43:19;;;;;;;26.65;9.43;;;13.50;99.90;;;;;;4914404;28;1185507;-74
2022/05/24 01:46:03;;;;;;;21.05;10.98;;;13.50;99.90;;;;;;4972360;28;36969;-74
2022/05/24 01:48:41;;;;;;;20.52;10.70;;;13.50;99.90;;;;;;4955154;28;48270;-74
2022/05/24 01:51:11;;;;;;;24.25;11.52;;;13.50;99.90;;;;;;4961551;28;38413;-74
2022/05/24 01:53:42;;;;;;;23.42;9.63;;;13.50;99.90;;;;;;4959660;28;37719;-74
2022/05/24 01:56:13;;;;;;;16.43;9.57;;;13.50;99.90;;;;;;4959522;28;38776;-73
2022/05/24 01:58:42;;;;;;;23.30;11.00;;;13.50;99.90;;;;;;4953310;28;39196;-74
2022/05/24 02:01:43;;;;;;;21.67;10.63;;;13.50;99.90;;;;;;4951112;28;39048;-73
2022/05/24 02:04:10;;;;;;;18.92;10.15;;;13.50;99.90;;;;;;4939559;28;38144;-74
2022/05/24 02:06:36;;;;;;;22.25;11.20;;;13.50;99.90;;;;;;4956440;28;39402;-73
2022/05/24 02:09:04;;;;;;;20.13;11.27;;;13.50;99.90;;;;;;4955740;28;37881;-74
2022/05/24 02:11:32;;;;;;;20.15;12.23;;;13.50;99.90;;;;;;4955685;28;38608;-75
2022/05/24 02:14:21;;;;;;;21.75;11.80;;;13.50;99.90;;;;;;4960356;28;38160;-73
2022/05/24 02:16:55;;;;;;;24.63;12.05;;;13.50;99.90;;;;;;4955903;28;47302;-74
2022/05/24 02:19:22;;;;;;;19.77;10.82;;;13.50;99.90;;;;;;4959015;28;38736;-77
2022/05/24 02:21:55;;;;;;;19.65;11.68;;;13.40;99.90;;;;;;4969995;28;38751;-77
2022/05/24 02:24:24;;;;;;;20.00;10.63;;;13.40;99.90;;;;;;4951684;28;37187;-78
2022/05/24 02:26:53;;;;;;;18.55;10.23;;;13.50;99.90;;;;;;4939643;28;38471;-76
2022/05/24 02:29:21;;;;;;;17.45;11.00;;;13.50;99.90;;;;;;4961177;28;39497;-72
2022/05/24 02:31:48;;;;;;;20.77;9.63;;;13.50;99.90;;;;;;4944080;28;38694;-74
2022/05/24 02:34:14;;;;;;;14.95;10.60;;;13.50;99.90;;;;;;4945759;28;37661;-74
2022/05/24 02:36:41;;;;;;;20.83;10.63;;;13.50;99.90;;;;;;4941596;28;38733;-74
2022/05/24 02:39:08;;;;;;;18.83;9.63;;;13.50;99.90;;;;;;4943654;28;39495;-74
2022/05/24 02:41:36;;;;;;;19.17;9.85;;;13.50;99.90;;;;;;4938898;28;37583;-74
2022/05/24 02:44:09;;;;;;;22.77;10.65;;;13.50;99.90;;;;;;4954169;28;38568;-74
2022/05/24 02:46:38;;;;;;;23.30;10.75;;;13.50;99.90;;;;;;4956747;28;39336;-73
2022/05/24 02:49:05;;;;;;;19.20;10.38;;;13.50;99.90;;;;;;4937692;28;39455;-74
2022/05/24 02:51:31;;;;;;;20.38;10.20;;;13.40;99.90;;;;;;4945329;28;38861;-74
2022/05/24 02:53:57;;;;;;;20.13;9.07;;;13.40;99.90;;;;;;4943720;28;37969;-73
2022/05/24 02:56:23;;;;;;;19.70;9.07;;;13.40;99.90;;;;;;4942834;28;39451;-74
2022/05/24 02:58:50;;;;;;;15.32;8.15;;;13.40;99.90;;;;;;4939157;28;39523;-73
2022/05/24 03:01:20;;;;;;;23.38;8.50;;;13.40;99.90;;;;;;4938748;28;38400;-73
2022/05/24 03:03:47;;;;;;;22.17;9.57;;;13.40;99.90;;;;;;4962123;28;38280;-73
2022/05/24 03:06:14;;;;;;;22.95;9.20;;;13.40;99.90;;;;;;4940944;28;39530;-74
2022/05/24 03:11:25;;;;;;;18.77;9.80;;;13.40;99.90;;;;;;4938781;28;38838;-74
2022/05/24 03:16:36;;;;;;;24.63;10.95;;;13.30;99.90;;;;;;4941000;28;49048;-75
2022/05/24 03:19:02;;;;;;;24.83;10.18;;;13.30;99.90;;;;;;4917994;28;39463;-75
2022/05/24 03:21:28;;;;;;;23.58;10.43;;;13.30;99.90;;;;;;4907563;28;39329;-75
2022/05/24 03:23:54;;;;;;;20.55;9.75;;;13.20;99.90;;;;;;4938227;28;38713;-75
2022/05/24 03:26:21;;;;;;;15.88;9.68;;;13.20;99.90;;;;;;4940591;28;39424;-74
2022/05/24 03:28:47;;;;;;;26.75;11.10;;;13.30;99.90;;;;;;4929395;28;38914;-75
2022/05/24 03:31:15;;;;;;;21.30;10.32;;;13.20;99.90;;;;;;4930185;28;38079;-75
2022/05/24 03:33:42;;;;;;;19.17;11.52;;;13.10;99.90;;;;;;4924878;28;39180;-75
2022/05/24 03:36:08;;;;;;;21.50;12.45;;;13.10;99.90;;;;;;4931930;28;38326;-75
2022/05/24 03:38:35;;;;;;;28.27;13.52;;;13.00;99.90;;;;;;4924670;28;39477;-75
2022/05/24 03:41:01;;;;;;;20.70;12.60;;;13.00;99.90;;;;;;4954408;28;39217;-75
2022/05/24 03:43:27;;;;;;;20.05;11.20;;;12.90;99.90;;;;;;4939406;28;47387;-74
2022/05/24 03:46:07;;;;;;;24.90;11.98;;;12.90;99.90;;;;;;4943616;28;39113;-75
2022/05/24 03:48:33;;;;;;;20.50;10.90;;;12.80;99.90;;;;;;4943264;28;46943;-76
2022/05/24 03:51:00;;;;;;;26.10;10.40;;;12.80;99.90;;;;;;4954698;28;39857;-75
2022/05/24 03:53:26;;;;;;;17.55;8.52;;;12.80;99.90;;;;;;4954876;28;37960;-74
2022/05/24 03:55:52;;;;;;;17.98;7.03;;;12.70;99.90;;;;;;4940535;28;39431;-75
2022/05/24 03:58:20;;;;;;;14.50;6.63;;;12.70;99.90;;;;;;4941026;28;39061;-75
2022/05/24 04:00:46;;;;;;;22.05;6.22;;;12.70;99.90;;;;;;4942258;28;38346;-75
2022/05/24 04:03:13;;;;;;;15.25;5.47;;;12.70;99.90;;;;;;4942361;28;37580;-75
2022/05/24 04:05:41;;;;;;;13.60;4.95;;;12.60;99.90;;;;;;4933072;28;38980;-75
2022/05/24 04:08:07;;;;;;;15.30;5.15;;;12.60;99.90;;;;;;4947895;28;40691;-75
2022/05/24 04:10:34;;;;;;;13.40;5.07;;;12.60;99.90;;;;;;4942150;28;39224;-74
2022/05/24 04:13:01;;;;;;;13.52;4.97;;;12.60;99.90;;;;;;4944947;28;37222;-75
2022/05/24 04:15:27;;;;;;;15.00;5.07;;;12.60;99.90;;;;;;4960587;28;41468;-76
2022/05/24 04:17:53;;;;;;;21.17;5.55;;;12.60;99.90;;;;;;4945357;28;40606;-75
2022/05/24 04:20:22;;;;;;;19.45;5.72;;;12.60;99.90;;;;;;4938935;28;39401;-75
2022/05/24 04:22:49;;;;;;;11.88;5.97;;;12.60;99.90;;;;;;4937967;28;37093;-74
2022/05/24 04:25:15;;;;;;;12.27;5.18;;;12.60;99.90;;;;;;4941156;28;38770;-75
2022/05/24 04:27:42;;;;;;;17.48;7.05;;;12.60;99.90;;;;;;4918310;28;38475;-74
2022/05/24 04:30:09;;;;;;;12.93;4.63;;;12.60;99.90;;;;;;4953165;28;39257;-75
2022/05/24 04:32:35;;;;;;;14.02;5.30;;;12.50;99.90;;;;;;4941928;28;37555;-77
2022/05/24 04:35:01;;;;;;;12.07;5.25;;;12.60;99.90;;;;;;4939791;28;40464;-76
2022/05/24 04:37:27;;;;;;;13.25;5.28;;;12.60;99.90;;;;;;4940371;28;46902;-75
2022/05/24 04:39:53;;;;;;;13.55;4.50;;;12.60;99.90;;;;;;4939681;28;40085;-74
2022/05/24 04:42:20;;;;;;;21.27;6.10;;;12.60;99.90;;;;;;4916892;28;37571;-75
2022/05/24 04:44:47;;;;;;;17.70;5.22;;;12.60;99.90;;;;;;4930174;28;39567;-75
2022/05/24 04:47:14;;;;;;;13.73;4.70;;;12.60;99.90;;;;;;4932778;28;39377;-76
2022/05/24 04:49:43;;;;;;;8.95;4.82;;;12.60;99.90;;;;;;4930391;28;39587;-75
2022/05/24 04:52:11;;;;;;;13.77;4.70;;;12.60;99.90;;;;;;4945879;28;39175;-76
2022/05/24 04:54:38;;;;;;;10.48;4.32;;;12.60;99.90;;;;;;4933592;28;38878;-75
2022/05/24 04:57:06;;;;;;;13.98;3.63;;;12.60;99.90;;;;;;4931596;28;39658;-75
2022/05/24 04:59:32;;;;;;;13.95;3.78;;;12.60;99.90;;;;;;4935661;28;39420;-77
2022/05/24 05:01:59;;;;;;;10.50;4.38;;;12.60;99.90;;;;;;4937648;28;38597;-76
2022/05/24 05:04:25;;;;;;;14.95;4.80;;;12.50;99.90;;;;;;4956230;28;40028;-76
2022/05/24 05:06:51;;;;;;;13.02;4.55;;;12.50;99.90;;;;;;4954689;28;40238;-76
2022/05/24 05:09:18;;;;;;;9.70;4.53;;;12.50;99.90;;;;;;4933749;28;38272;-76
2022/05/24 05:11:44;;;;;;;14.00;4.97;;;12.50;99.90;;;;;;4941329;28;37776;-76
2022/05/24 05:14:11;;;;;;;16.70;5.35;;;12.50;99.90;;;;;;4934147;28;40041;-78
2022/05/24 05:16:38;;;;;;;12.50;4.80;;;12.60;99.90;;;;;;4937917;28;40516;-75
2022/05/24 05:19:06;;;;;;;11.15;4.35;;;12.60;99.90;;;;;;4940705;28;38079;-76
2022/05/24 05:21:34;;;;;;;14.27;4.88;;;12.80;99.90;;;;;;4942972;28;36746;-77
2022/05/24 05:24:01;;;;;;;8.70;4.75;;;13.00;99.90;;;;;;4947803;28;38295;-77
2022/05/24 05:26:28;;;;;;;13.30;5.68;;;13.10;99.90;;;;;;4944790;28;45904;-76
2022/05/24 05:28:54;;;;;;;14.48;6.35;;;13.10;99.90;;;;;;4947946;28;39418;-74
2022/05/24 05:31:25;;;;;;;11.13;6.00;;;13.10;99.90;;;;;;4947899;28;37271;-73
2022/05/24 05:33:51;;;;;;;15.13;6.65;;;13.10;99.90;;;;;;4947083;28;38784;-76
2022/05/24 05:36:19;;;;;;;11.48;5.25;;;13.10;99.90;;;;;;4927088;28;40594;-74
2022/05/24 05:38:46;;;;;;;12.48;6.70;;;12.90;99.90;;;;;;4945694;28;38673;-75
2022/05/24 05:41:13;;;;;;;14.98;6.97;;;12.90;99.90;;;;;;4945995;28;37241;-77
2022/05/24 05:43:40;;;;;;;14.88;6.72;;;12.90;99.90;;;;;;4959998;28;39883;-76
2022/05/24 05:46:08;;;;;;;14.73;6.82;;;12.90;99.90;;;;;;4945016;28;39751;-76
2022/05/24 05:48:35;;;;;;;13.60;6.00;;;12.90;99.90;;;;;;4940141;28;39288;-73
2022/05/24 05:51:02;;;;;;;12.90;5.75;;;13.00;99.90;;;;;;4937092;28;37740;-76
2022/05/24 05:53:28;;;;;;;12.90;5.28;;;13.00;99.90;;;;;;4957019;28;47337;-75
2022/05/24 05:55:54;;;;;;;11.43;5.32;;;12.90;99.90;;;;;;4941809;28;39439;-75
2022/05/24 05:58:21;;;;;;;8.95;4.68;;;12.90;99.90;;;;;;4937911;28;39657;-76
2022/05/24 06:00:48;;;;;;;13.57;5.65;;;13.00;99.90;;;;;;4942361;28;38229;-77
2022/05/24 06:03:15;;;;;;;12.57;4.53;;;12.90;99.90;;;;;;4958838;28;39770;-76
2022/05/24 06:05:43;;;;;;;10.50;4.05;;;13.00;99.90;;;;;;4945645;28;39246;-77
2022/05/24 06:08:10;;;;;;;10.55;3.75;;;13.00;99.90;;;;;;4946090;28;38514;-76
2022/05/24 06:10:37;;;;;;;9.90;3.88;;;13.20;99.90;;;;;;4943668;28;38601;-77
2022/05/24 06:13:04;;;;;;;11.25;4.05;;;13.30;99.90;;;;;;4946938;28;38450;-77
2022/05/24 06:15:32;;;;;;;9.50;3.53;;;13.20;99.90;;;;;;4951835;28;39815;-75
2022/05/24 06:17:58;;;;;;;12.00;3.85;;;13.30;99.90;;;;;;4950455;28;39162;-77
2022/05/24 06:20:27;;;;;;;9.90;3.15;;;13.50;99.90;;;;;;4949296;28;37362;-74
2022/05/24 06:22:55;;;;;;;12.63;4.60;;;13.40;99.90;;;;;;4951879;28;39467;-77
2022/05/24 06:25:22;;;;;;;9.35;5.00;;;13.50;99.90;;;;;;4950978;28;39695;-78
2022/05/24 06:27:52;;;;;;;8.98;4.65;;;13.40;99.90;;;;;;4947724;28;38280;-78
2022/05/24 06:30:20;;;;;;;10.05;5.50;;;13.40;99.90;;;;;;4955290;28;38341;-77
2022/05/24 06:32:48;;;;;;;12.35;5.10;;;13.40;99.90;;;;;;4947832;28;38461;-76
2022/05/24 06:35:14;;;;;;;10.65;4.90;;;13.50;99.90;;;;;;4944843;28;39511;-76
2022/05/24 06:37:41;;;;;;;13.52;4.53;;;13.80;99.90;;;;;;4951521;28;38694;-76
2022/05/24 06:40:10;;;;;;;10.65;4.30;;;14.10;99.90;;;;;;4951939;28;37314;-76
2022/05/24 06:42:36;;;;;;;10.85;3.90;;;14.40;99.90;;;;;;4961583;28;39402;-77
2022/05/24 06:45:03;;;;;;;7.00;3.22;;;14.30;99.90;;;;;;4959595;28;40947;-75
2022/05/24 06:47:29;;;;;;;9.38;2.90;;;14.10;99.90;;;;;;4953517;28;38176;-77
2022/05/24 06:49:56;;;;;;;6.63;2.90;;;14.40;99.90;;;;;;4942476;28;37690;-76
2022/05/24 06:52:23;;;;;;;6.28;2.25;;;14.50;99.90;;;;;;4951934;28;40924;-76
2022/05/24 06:54:49;;;;;;;6.10;1.75;;;14.20;99.90;;;;;;4942606;28;38551;-75
2022/05/24 06:57:15;;;;;;;4.25;1.85;;;13.90;99.90;;;;;;4958385;28;38887;-76
2022/05/24 07:02:26;;;;;;;6.07;2.10;;;13.40;99.90;;;;;;4941704;28;39523;-75
2022/05/24 07:05:14;;;;;;;9.15;3.20;;;13.40;99.90;;;;;;4958711;28;39310;-74
2022/05/24 07:07:41;;;;;;;7.38;2.72;;;13.30;99.90;;;;;;4946038;28;48475;-75
2022/05/24 07:10:12;;;;;;;10.07;2.90;;;13.30;99.90;;;;;;4951007;28;37917;-77
2022/05/24 07:12:39;;;;;;;15.75;4.22;;;13.30;99.90;;;;;;4953618;28;39290;-75
2022/05/24 07:15:05;;;;;;;8.73;3.13;;;13.30;99.90;;;;;;4941739;28;39492;-75
2022/05/24 07:17:31;;;;;;;7.00;3.30;;;13.20;99.90;;;;;;4938042;28;38601;-75
2022/05/24 07:19:58;;;;;;;11.52;3.78;;;13.20;99.90;;;;;;4938560;28;37720;-75
2022/05/24 07:22:24;;;;;;;7.05;3.53;;;13.00;99.90;;;;;;4950965;28;38141;-75
2022/05/24 07:24:50;;;;;;;8.52;3.25;;;12.90;99.90;;;;;;4950123;28;38952;-75
2022/05/24 07:27:19;;;;;;;9.35;4.22;;;12.70;99.90;;;;;;4959619;28;39315;-77
2022/05/24 07:29:45;;;;;;;14.57;5.50;;;12.70;99.90;;;;;;4947475;28;36931;-76
2022/05/24 07:32:11;;;;;;;11.30;4.43;;;12.60;99.90;;;;;;4944894;28;38952;-76
2022/05/24 07:34:38;;;;;;;9.52;3.33;;;12.50;99.90;;;;;;4947460;28;40288;-76
2022/05/24 07:37:06;;;;;;;5.40;2.17;;;12.40;99.90;;;;;;4962682;28;39316;-76
2022/05/24 07:39:33;;;;;;;3.78;2.55;;;12.20;99.90;;;;;;4945831;28;37634;-76
2022/05/24 07:47:37;;;;;;;6.95;2.40;;;12.50;99.90;;;;;;4944458;28;49054;-75
2022/05/24 07:50:04;;;;;;;9.07;2.30;;;12.60;99.90;;;;;;4941766;28;37363;-76
2022/05/24 07:52:31;;;;;;;5.57;2.13;;;12.80;99.90;;;;;;4946702;28;40692;-74
2022/05/24 07:54:57;;;;;;;4.43;1.67;;;13.20;99.90;;;;;;4946593;28;38777;-74
2022/05/24 07:57:23;;;;;;;5.22;1.33;;;13.60;99.90;;;;;;4950372;28;38125;-75
2022/05/24 07:59:49;;;;;;;2.58;1.00;;;14.10;99.90;;;;;;4947987;28;37052;-75
2022/05/24 08:02:17;;;;;;;2.50;0.98;;;13.80;99.90;;;;;;4943000;28;38548;-75
2022/05/24 08:04:44;;;;;;;3.83;1.00;;;14.00;99.90;;;;;;4937614;28;39647;-75
2022/05/24 08:07:10;;;;;;;4.78;0.90;;;13.90;99.90;;;;;;4932856;28;38298;-76
2022/05/24 08:09:36;;;;;;;4.90;1.48;;;13.80;99.90;;;;;;4941864;28;37021;-73
2022/05/24 08:12:03;;;;;;;5.47;1.15;;;13.60;99.90;;;;;;4954894;28;39806;-75
2022/05/24 08:14:29;;;;;;;3.92;1.00;;;13.40;99.90;;;;;;4939408;28;40363;-74
2022/05/24 08:16:55;;;;;;;3.72;1.65;;;13.40;99.90;;;;;;4941624;28;37980;-77
2022/05/24 08:19:21;;;;;;;1.95;0.80;;;13.10;99.90;;;;;;4951981;28;38176;-77
2022/05/24 08:21:47;;;;;;;1.77;1.00;;;13.10;99.90;;;;;;4942285;28;39821;-77
2022/05/24 08:24:15;;;;;;;3.40;1.13;;;13.10;99.90;;;;;;4938173;28;39773;-76
2022/05/24 08:26:41;;;;;;;2.08;0.63;;;13.10;99.90;;;;;;4963489;28;39838;-77
2022/05/24 08:29:08;;;;;;;1.95;0.77;;;13.10;99.90;;;;;;4944399;28;37244;-74
2022/05/24 08:31:34;;;;;;;2.17;0.75;;;13.30;99.90;;;;;;4951068;28;39427;-74
2022/05/24 08:34:00;;;;;;;1.70;0.90;;;13.40;99.90;;;;;;4942044;28;39272;-74
2022/05/24 08:36:26;;;;;;;2.47;1.00;;;13.60;99.90;;;;;;4952026;28;46909;-75
2022/05/24 08:38:53;;;;;;;6.00;1.23;;;13.80;99.90;;;;;;4944484;28;37059;-74
2022/05/24 08:41:51;;;;;;;1.45;1.00;;;13.90;99.90;;;;;;4942912;28;39217;-74
2022/05/24 08:50:05;;;;;;;3.22;1.27;;;14.20;99.90;;;;;;4944647;28;37693;-76
2022/05/24 08:52:40;;;;;;;5.88;1.15;;;14.30;99.90;;;;;;4944565;28;39912;-74
2022/05/24 08:55:10;;;;;;;4.00;0.90;;;14.30;99.90;;;;;;4943496;28;40530;-75
2022/05/24 08:57:50;;;;;;;3.40;1.00;;;14.30;99.90;;;;;;4946697;28;39135;-73
2022/05/24 09:00:21;;;;;;;3.58;1.02;;;14.20;99.90;;;;;;4941753;28;37720;-74
2022/05/24 09:02:48;;;;;;;3.28;0.90;;;14.10;99.90;;;;;;4941126;28;38475;-74
2022/05/24 09:05:35;;;;;;;2.65;1.00;;;14.00;99.90;;;;;;4960745;28;40415;-75
2022/05/24 09:08:25;;;;;;;6.55;1.23;;;14.00;99.90;;;;;;4948568;28;38429;-74
2022/05/24 09:10:59;;;;;;;4.18;1.17;;;14.10;99.90;;;;;;4964081;28;47458;-75
2022/05/24 09:13:46;;;;;;;4.20;1.10;;;14.00;99.90;;;;;;4957734;28;40781;-74
2022/05/24 09:16:15;;;;;;;3.08;1.17;;;13.80;99.90;;;;;;4952088;28;37323;-73
2022/05/24 09:18:57;;;;;;;6.28;1.30;;;13.90;99.90;;;;;;4943630;28;38433;-74
2022/05/24 09:21:29;;;;;;;6.68;1.20;;;14.00;99.90;;;;;;4945723;28;37873;-73
2022/05/24 09:24:02;;;;;;;5.60;1.10;;;14.20;99.90;;;;;;4949264;28;39429;-73
2022/05/24 09:26:32;;;;;;;3.70;0.80;;;14.40;99.90;;;;;;4948044;28;48546;-73
2022/05/24 09:29:09;;;;;;;3.95;1.15;;;14.40;99.90;;;;;;4952939;28;39510;-73
2022/05/24 09:31:47;;;;;;;4.18;1.00;;;14.50;99.90;;;;;;4945397;28;47492;-74
2022/05/24 09:34:19;;;;;;;4.38;0.85;;;14.80;99.90;;;;;;4930264;28;38514;-74
2022/05/24 09:37:02;;;;;;;3.30;1.00;;;14.90;99.90;;;;;;4946469;28;39479;-75
2022/05/24 09:39:41;;;;;;;6.32;1.35;;;15.20;99.90;;;;;;4958572;28;47347;-75
2022/05/24 09:42:30;;;;;;;4.93;1.13;;;15.30;99.90;;;;;;4950980;28;37309;-74
2022/05/24 09:45:00;;;;;;;6.05;1.42;;;15.00;99.90;;;;;;4943069;28;38657;-75
2022/05/24 09:47:35;;;;;;;3.47;1.00;;;14.80;99.90;;;;;;4955553;28;39618;-74
2022/05/24 09:50:24;;;;;;;4.70;1.10;;;15.00;99.90;;;;;;4958442;28;38706;-75
2022/05/24 09:53:02;;;;;;;3.78;1.00;;;15.30;99.90;;;;;;4955786;28;38175;-75
2022/05/24 09:55:29;;;;;;;5.43;1.35;;;15.50;99.90;;;;;;4954143;28;47272;-75
2022/05/24 09:58:15;;;;;;;4.03;1.23;;;15.50;99.90;;;;;;4944857;28;39026;-75
2022/05/24 10:01:09;;;;;;;6.43;1.27;;;15.30;99.90;;;;;;4943479;28;49743;-75
2022/05/24 10:03:43;;;;;;;7.05;1.00;;;15.10;99.90;;;;;;4933002;28;48757;-74
2022/05/24 10:06:15;;;;;;;5.20;1.50;;;15.10;99.90;;;;;;4940070;28;39874;-75
2022/05/24 10:08:45;;;;;;;4.90;0.75;;;15.30;99.90;;;;;;4957198;28;39880;-73
2022/05/24 10:11:25;;;;;;;1.40;0.60;;;15.50;99.90;;;;;;4935032;28;39101;-76
2022/05/24 10:13:59;;;;;;;4.70;1.38;;;15.60;99.90;;;;;;4951421;28;38034;-75
2022/05/24 10:17:12;;;;;;;6.32;1.65;;;15.90;99.90;;;;;;4940633;28;38284;-74
2022/05/24 10:19:41;;;;;;;9.48;1.42;;;16.10;99.90;;;;;;4901610;28;46992;-74
2022/05/24 10:22:12;;;;;;;4.07;1.35;;;15.60;99.90;;;;;;4953478;28;36223;-74
2022/05/24 10:25:16;;;;;;;6.45;1.50;;;15.20;99.90;;;;;;4940086;28;37908;-75
2022/05/24 10:28:01;;;;;;;3.92;1.30;;;15.00;99.90;;;;;;4952666;28;47154;-75
2022/05/24 10:30:53;;;;;;;5.78;1.30;;;14.70;99.90;;;;;;4943266;28;47304;-74
2022/05/24 10:39:22;;;;;;;7.63;1.75;;;14.80;99.90;;;;;;4937665;28;40553;-74
2022/05/24 10:42:06;;;;;;;3.40;1.38;;;14.80;99.90;;;;;;4958501;28;40602;-73
2022/05/24 10:44:35;;;;;;;9.70;1.80;;;14.80;99.90;;;;;;4941102;28;48544;-74
2022/05/24 10:47:17;;;;;;;3.38;1.30;;;15.10;99.90;;;;;;4938194;28;37412;-75
2022/05/24 10:49:50;;;;;;;4.47;1.13;;;15.00;99.90;;;;;;4949789;28;38854;-74
2022/05/24 10:52:37;;;;;;;5.15;1.27;;;15.20;99.90;;;;;;4946846;28;38053;-74
2022/05/24 10:55:14;;;;;;;1.13;0.52;;;15.60;99.90;;;;;;4962251;28;37481;-75
2022/05/24 10:58:12;;;;;;;2.53;0.75;;;15.90;99.90;;;;;;4956615;28;37691;-74
2022/05/24 11:00:52;;;;;;;2.97;0.70;;;16.10;99.90;;;;;;4955594;28;46883;-76
2022/05/24 11:03:18;;;;;;;3.50;0.93;;;16.20;99.90;;;;;;4948133;28;38537;-74
2022/05/24 11:05:59;;;;;;;4.03;0.93;;;16.70;99.90;;;;;;4945511;28;39766;-74
2022/05/24 11:08:38;;;;;;;2.60;0.95;;;17.00;99.90;;;;;;4949815;28;37486;-75
2022/05/24 11:11:33;;;;;;;3.50;0.93;;;16.50;99.90;;;;;;4965861;28;39865;-73
2022/05/24 11:14:15;;;;;;;1.88;0.70;;;16.30;99.90;;;;;;4950284;28;38623;-73
2022/05/24 11:16:50;;;;;;;2.50;0.85;;;16.30;99.90;;;;;;4945691;28;48439;-73
2022/05/24 11:19:21;;;;;;;2.15;0.50;;;17.00;99.90;;;;;;4935560;28;37501;-75
2022/05/24 11:22:06;;;;;;;1.27;0.40;;;17.70;99.90;;;;;;4943464;28;38884;-76
2022/05/24 11:24:35;;;;;;;7.57;1.75;;;18.00;99.90;;;;;;4939557;28;48078;-76
2022/05/24 11:27:02;;;;;;;1.67;0.43;;;18.20;99.90;;;;;;4956987;28;39112;-75
2022/05/24 11:29:43;;;;;;;1.58;0.40;;;18.10;99.90;;;;;;4938549;28;38275;-77
2022/05/24 11:32:11;;;;;;;1.35;0.55;;;17.90;99.90;;;;;;4944773;28;39662;-75
2022/05/24 11:34:50;;;;;;;1.63;0.40;;;18.10;99.90;;;;;;4944873;28;39686;-77
2022/05/24 11:37:31;;;;;;;2.08;0.40;;;18.00;99.90;;;;;;4944459;28;38387;-76
2022/05/24 11:40:26;;;;;;;1.05;0.70;;;17.60;99.90;;;;;;4948313;28;38215;-77
2022/05/24 11:42:53;;;;;;;1.63;0.50;;;17.50;99.90;;;;;;4942492;28;48500;-75
2022/05/24 11:45:34;;;;;;;1.80;0.38;;;17.80;99.90;;;;;;4962650;28;39829;-76
2022/05/24 11:48:06;;;;;;;1.08;0.60;;;18.20;99.90;;;;;;4947308;28;38100;-77
2022/05/24 11:50:39;;;;;;;1.33;0.40;;;18.60;99.90;;;;;;4943432;28;48823;-76
2022/05/24 11:53:30;;;;;;;3.45;0.45;;;19.10;99.90;;;;;;4966006;28;39656;-74
2022/05/24 11:55:57;;;;;;;2.13;0.50;;;19.40;99.90;;;;;;4942181;28;40861;-74
2022/05/24 11:58:40;;;;;;;0.93;0.43;;;19.40;99.90;;;;;;4944914;28;38756;-75
2022/05/24 12:01:15;;;;;;;1.42;0.63;;;19.50;99.90;;;;;;4959261;28;38246;-76
2022/05/24 12:09:59;;;;;;;0.50;0.40;;;19.10;99.90;;;;;;4944215;28;49322;-76
2022/05/24 12:12:31;;;;;;;1.65;0.50;;;19.50;99.90;;;;;;4939202;28;37905;-76
2022/05/24 12:15:09;;;;;;;0.63;0.30;;;19.60;99.90;;;;;;4942315;28;40017;-76
2022/05/24 12:17:35;;;;;;;1.52;0.30;;;19.50;99.90;;;;;;4947700;28;47353;-76
2022/05/24 12:20:04;;;;;;;1.40;0.20;;;19.30;99.90;;;;;;4949106;28;38808;-78
2022/05/24 12:22:41;;;;;;;1.05;0.28;;;19.30;99.90;;;;;;4965729;28;37809;-75
2022/05/24 12:25:07;;;;;;;1.65;0.40;;;19.60;99.90;;;;;;4938854;28;38888;-76
2022/05/24 12:27:33;;;;;;;1.80;0.77;;;19.90;99.90;;;;;;4925788;28;39432;-75
2022/05/24 12:30:12;;;;;;;1.92;0.40;;;20.00;99.90;;;;;;4940508;28;39748;-76
2022/05/24 12:32:39;;;;;;;0.60;0.20;;;19.80;99.90;;;;;;4946200;28;48836;-73
2022/05/24 12:35:09;;;;;;;0.90;0.30;;;20.00;99.90;;;;;;4957770;28;40436;-76
2022/05/24 12:37:36;;;;;;;3.22;0.40;;;20.10;99.90;;;;;;4947943;28;39436;-76
2022/05/24 12:40:08;;;;;;;2.00;0.55;;;19.90;99.90;;;;;;4945656;28;38612;-76
2022/05/24 12:42:41;;;;;;;2.30;0.68;;;19.70;99.90;;;;;;4957457;28;37323;-73
2022/05/24 12:45:08;;;;;;;0.98;0.40;;;19.80;99.90;;;;;;4963153;28;41460;-75
2022/05/24 12:47:34;;;;;;;2.28;0.55;;;19.60;99.90;;;;;;4944321;28;38565;-79
2022/05/24 12:50:00;;;;;;;3.75;0.65;;;19.60;99.90;;;;;;4969859;28;39842;-77
2022/05/24 12:52:29;;;;;;;1.52;0.40;;;19.60;99.90;;;;;;4945183;28;37283;-74
2022/05/24 12:54:58;;;;;;;0.45;0.20;;;19.90;99.90;;;;;;4943655;28;38606;-75
2022/05/24 12:57:39;;;;;;;3.72;0.47;;;19.80;99.90;;;;;;4939451;28;40553;-73
2022/05/24 13:00:21;;;;;;;0.45;0.20;;;19.90;99.90;;;;;;4931374;28;38255;-77
2022/05/24 13:02:52;;;;;;;1.50;0.30;;;19.90;99.90;;;;;;4953793;28;38667;-74
2022/05/24 13:05:35;;;;;;;2.10;0.40;;;20.00;99.90;;;;;;4955677;28;39618;-74
2022/05/24 13:08:02;;;;;;;2.65;1.10;;;19.90;99.90;;;;;;4944249;28;38952;-75
2022/05/24 13:10:33;;;;;;;4.72;0.70;;;20.00;99.90;;;;;;4942620;28;38752;-74
2022/05/24 13:13:03;;;;;;;3.08;0.52;;;19.70;99.90;;;;;;4944502;28;36225;-75
2022/05/24 13:15:36;;;;;;;1.95;0.30;;;19.60;99.90;;;;;;4945012;28;47219;-75
2022/05/24 13:18:14;;;;;;;2.20;0.80;;;19.60;99.90;;;;;;4948944;28;39875;-75
2022/05/24 13:20:53;;;;;;;0.82;0.40;;;19.40;99.90;;;;;;4945133;28;39168;-75
2022/05/24 13:23:25;;;;;;;4.80;0.80;;;19.20;99.90;;;;;;4960467;28;37396;-74
2022/05/24 13:26:18;;;;;;;5.38;0.70;;;19.40;99.90;;;;;;4945032;28;39844;-75
2022/05/24 13:28:51;;;;;;;2.50;0.47;;;19.90;99.90;;;;;;4937495;28;47229;-75
2022/05/24 13:34:19;;;;;;;2.65;0.50;;;20.50;99.90;;;;;;4943757;28;37819;-74
2022/05/24 13:36:57;;;;;;;2.30;0.52;;;19.90;99.90;;;;;;4936632;28;37657;-76
2022/05/24 13:39:27;;;;;;;0.93;0.55;;;19.20;99.90;;;;;;4944615;28;38574;-74
2022/05/24 13:42:09;;;;;;;2.40;0.73;;;19.10;99.90;;;;;;4942883;28;38369;-75